createdAt,value
2023-06-14T00:09:20.293Z,2.70
2023-06-14T00:23:20.074Z,2.70
2023-06-14T00:37:19.949Z,2.50
2023-06-14T00:51:19.804Z,3.00
2023-06-14T01:05:19.652Z,2.60
2023-06-14T01:19:19.476Z,2.50
2023-06-14T01:33:19.353Z,2.80
2023-06-14T01:47:19.205Z,2.60
2023-06-14T02:01:19.209Z,2.40
2023-06-14T02:15:18.920Z,2.50
2023-06-14T02:29:18.697Z,2.60
2023-06-14T02:43:18.582Z,2.30
2023-06-14T02:57:18.446Z,2.20
2023-06-14T03:11:18.270Z,2.30
2023-06-14T03:25:18.092Z,2.30
2023-06-14T03:39:17.933Z,2.40
2023-06-14T03:53:17.787Z,2.50
2023-06-14T04:07:34.576Z,2.60
2023-06-14T04:21:34.432Z,2.60
2023-06-14T04:35:34.277Z,2.50
2023-06-14T04:49:34.248Z,2.60
2023-06-14T05:03:33.995Z,2.50
2023-06-14T05:17:33.859Z,2.40
2023-06-14T05:31:33.699Z,2.40
2023-06-14T05:45:33.533Z,2.50
2023-06-14T05:59:33.396Z,2.70
2023-06-14T06:13:33.252Z,2.80
2023-06-14T06:27:33.112Z,2.60
2023-06-14T06:41:33.003Z,2.60
2023-06-14T06:55:32.796Z,2.50
2023-06-14T07:09:32.657Z,2.60
2023-06-14T07:23:32.506Z,2.10
2023-06-14T07:37:32.517Z,2.50
2023-06-14T07:51:32.220Z,2.90
2023-06-14T08:05:32.064Z,2.80
2023-06-14T08:19:31.945Z,3.30
2023-06-14T08:33:31.868Z,3.00
2023-06-14T08:47:32.349Z,3.10
2023-06-14T09:01:31.571Z,2.80
2023-06-14T09:15:31.360Z,2.30
2023-06-14T09:29:31.190Z,2.60
2023-06-14T09:43:31.072Z,2.30
2023-06-14T09:57:30.933Z,2.10
2023-06-14T10:11:30.812Z,2.30
2023-06-14T10:25:30.642Z,2.30
2023-06-14T10:39:30.574Z,2.20
2023-06-14T10:53:30.325Z,2.10
2023-06-14T11:07:30.168Z,1.90
2023-06-14T11:21:30.032Z,2.30
2023-06-14T11:35:29.885Z,2.20
2023-06-14T11:49:29.740Z,2.50
2023-06-14T12:03:29.639Z,2.50
2023-06-14T12:17:29.443Z,2.70
2023-06-14T12:31:29.822Z,2.60
2023-06-14T12:45:29.151Z,2.60
2023-06-14T12:59:28.995Z,2.60
2023-06-14T13:13:29.031Z,2.90
2023-06-14T13:27:28.755Z,3.10
2023-06-14T13:41:28.554Z,3.20
2023-06-14T13:55:28.423Z,2.90
2023-06-14T14:09:28.252Z,3.20
2023-06-14T14:23:28.109Z,2.80
2023-06-14T14:37:28.082Z,3.10
2023-06-14T14:51:27.811Z,3.10
2023-06-14T15:05:27.688Z,2.80
2023-06-14T15:19:27.546Z,3.10
2023-06-14T15:33:27.401Z,3.00
2023-06-14T15:47:27.287Z,2.90
2023-06-14T16:01:27.136Z,2.80
2023-06-14T16:15:26.993Z,2.90
2023-06-14T16:29:26.785Z,3.10
2023-06-14T16:43:26.698Z,2.90
2023-06-14T16:57:26.498Z,3.40
2023-06-14T17:11:26.926Z,2.90
2023-06-14T17:25:26.231Z,3.60
2023-06-14T17:39:26.087Z,3.00
2023-06-14T17:53:25.937Z,3.90
2023-06-14T18:07:25.779Z,3.80
2023-06-14T18:21:25.598Z,3.10
2023-06-14T18:35:25.511Z,3.50
2023-06-14T18:49:25.314Z,3.20
2023-06-14T19:03:25.339Z,3.10
2023-06-14T19:17:25.051Z,3.40
2023-06-14T19:31:24.880Z,3.50
2023-06-14T19:45:24.711Z,3.50
2023-06-14T19:59:24.590Z,3.30
2023-06-14T20:13:24.428Z,3.40
2023-06-14T20:27:24.303Z,3.50
2023-06-14T20:41:24.202Z,4.10
2023-06-14T20:55:24.036Z,3.80
2023-06-14T21:09:23.845Z,4.20
2023-06-14T21:23:23.713Z,4.30
2023-06-14T21:37:23.576Z,4.00
2023-06-14T21:51:23.424Z,4.30
2023-06-14T22:05:23.287Z,4.10
2023-06-14T22:19:23.137Z,3.90
2023-06-14T22:33:22.995Z,3.90
2023-06-14T22:47:22.813Z,4.10
2023-06-14T23:01:22.685Z,3.90
2023-06-14T23:15:22.509Z,4.70
2023-06-14T23:29:22.362Z,4.30
2023-06-14T23:43:22.191Z,4.20
2023-06-14T23:57:22.053Z,4.40
